Time,TemperatureF,DewpointF,PressureIn,WindDirection,WindDirectionDegrees,WindSpeedMPH,WindSpeedGustMPH,Humidity,HourlyPrecipIn,Conditions,Clouds,dailyrainin,SoftwareType,DateUTC
2013-05-18 00:08:00,74.5,72.0,29.76,ESE,108,9.0,10.0,92,0.00,,,0.00,weatherlink.com 1.10,2013-05-18 05:08:00,
2013-05-18 00:23:00,74.3,72.0,29.76,ESE,106,5.0,10.0,93,0.00,,,0.00,weatherlink.com 1.10,2013-05-18 05:23:00,
2013-05-18 00:38:00,74.1,72.0,29.75,ESE,112,2.0,9.0,93,0.00,,,0.00,weatherlink.com 1.10,2013-05-18 05:38:00,
2013-05-18 00:53:00,73.8,72.0,29.75,ESE,108,4.0,9.0,93,0.00,,,0.00,weatherlink.com 1.10,2013-05-18 05:53:00,
2013-05-18 01:08:00,73.5,72.0,29.76,ESE,109,0.0,8.0,94,0.00,,,0.00,weatherlink.com 1.10,2013-05-18 06:08:00,
2013-05-18 01:23:00,73.3,72.0,29.75,ESE,108,3.0,7.0,94,0.00,,,0.00,weatherlink.com 1.10,2013-05-18 06:23:00,
2013-05-18 01:38:00,73.1,71.0,29.75,ESE,121,0.0,7.0,94,0.00,,,0.00,weatherlink.com 1.10,2013-05-18 06:38:00,
2013-05-18 01:53:00,73.0,71.0,29.75,SE,143,0.0,9.0,94,0.00,,,0.00,weatherlink.com 1.10,2013-05-18 06:53:00,
2013-05-18 02:08:00,72.8,71.0,29.74,ESE,107,1.0,6.0,94,0.00,,,0.00,weatherlink.com 1.10,2013-05-18 07:08:00,
2013-05-18 02:23:00,72.5,71.0,29.74,ESE,113,2.0,8.0,95,0.00,,,0.00,weatherlink.com 1.10,2013-05-18 07:23:00,
2013-05-18 02:38:00,72.5,71.0,29.74,ESE,113,1.0,8.0,95,0.00,,,0.00,weatherlink.com 1.10,2013-05-18 07:38:00,
2013-05-18 02:54:00,72.4,71.0,29.74,ESE,119,0.0,9.0,95,0.00,,,0.00,weatherlink.com 1.10,2013-05-18 07:54:00,
2013-05-18 03:09:00,72.4,71.0,29.74,ESE,113,0.0,7.0,95,0.00,,,0.00,weatherlink.com 1.10,2013-05-18 08:09:00,
2013-05-18 03:24:00,72.4,71.0,29.74,SE,132,6.0,8.0,95,0.00,,,0.00,weatherlink.com 1.10,2013-05-18 08:24:00,
2013-05-18 03:39:00,72.3,71.0,29.74,SE,130,0.0,9.0,95,0.00,,,0.00,weatherlink.com 1.10,2013-05-18 08:39:00,
2013-05-18 03:54:00,72.1,71.0,29.74,SE,128,6.0,7.0,95,0.00,,,0.00,weatherlink.com 1.10,2013-05-18 08:54:00,
2013-05-18 04:09:00,71.9,71.0,29.74,SE,132,4.0,6.0,95,0.00,,,0.00,weatherlink.com 1.10,2013-05-18 09:09:00,
2013-05-18 04:24:00,71.7,71.0,29.74,SE,132,0.0,5.0,96,0.00,,,0.00,weatherlink.com 1.10,2013-05-18 09:24:00,
2013-05-18 04:39:00,71.5,70.0,29.73,SE,131,0.0,4.0,96,0.00,,,0.00,weatherlink.com 1.10,2013-05-18 09:39:00,
2013-05-18 04:54:00,71.3,70.0,29.73,ESE,104,4.0,6.0,96,0.00,,,0.00,weatherlink.com 1.10,2013-05-18 09:54:00,
2013-05-18 05:09:00,71.1,70.0,29.73,ESE,109,0.0,5.0,96,0.00,,,0.00,weatherlink.com 1.10,2013-05-18 10:09:00,
2013-05-18 05:24:00,71.0,70.0,29.74,ESE,103,5.0,6.0,97,0.00,,,0.00,weatherlink.com 1.10,2013-05-18 10:24:00,
2013-05-18 05:39:00,71.0,70.0,29.74,ESE,108,4.0,4.0,97,0.00,,,0.00,weatherlink.com 1.10,2013-05-18 10:39:00,
2013-05-18 05:54:00,70.9,70.0,29.74,ESE,110,0.0,4.0,97,0.00,,,0.00,weatherlink.com 1.10,2013-05-18 10:54:00,
2013-05-18 06:09:00,70.8,70.0,29.75,ESE,119,0.0,5.0,97,0.00,,,0.00,weatherlink.com 1.10,2013-05-18 11:09:00,
2013-05-18 06:24:00,70.7,70.0,29.75,ESE,119,1.0,2.0,97,0.00,,,0.00,weatherlink.com 1.10,2013-05-18 11:24:00,
2013-05-18 06:39:00,70.7,70.0,29.76,ESE,119,0.0,1.0,97,0.00,,,0.00,weatherlink.com 1.10,2013-05-18 11:39:00,
2013-05-18 06:54:00,70.7,70.0,29.77,ESE,119,0.0,0.0,97,0.00,,,0.00,weatherlink.com 1.10,2013-05-18 11:54:00,
2013-05-18 07:09:00,70.7,70.0,29.77,ESE,119,0.0,1.0,97,0.00,,,0.00,weatherlink.com 1.10,2013-05-18 12:09:00,
2013-05-18 07:24:00,70.8,70.0,29.78,ESE,119,0.0,3.0,97,0.00,,,0.00,weatherlink.com 1.10,2013-05-18 12:24:00,
2013-05-18 07:39:00,71.1,70.0,29.79,SE,130,0.0,1.0,97,0.00,,,0.00,weatherlink.com 1.10,2013-05-18 12:39:00,
2013-05-18 07:54:00,71.5,71.0,29.79,SE,136,5.0,5.0,97,0.00,,,0.00,weatherlink.com 1.10,2013-05-18 12:54:00,
2013-05-18 08:09:00,72.6,72.0,29.80,SE,145,5.0,9.0,98,0.00,,,0.00,weatherlink.com 1.10,2013-05-18 13:09:00,
2013-05-18 08:24:00,73.4,73.0,29.80,South,175,4.0,10.0,97,0.00,,,0.00,weatherlink.com 1.10,2013-05-18 13:24:00,
2013-05-18 08:39:00,74.7,73.0,29.80,SSE,157,1.0,10.0,94,0.00,,,0.00,weatherlink.com 1.10,2013-05-18 13:39:00,
2013-05-18 08:54:00,76.1,73.0,29.80,SSE,152,6.0,8.0,91,0.00,,,0.00,weatherlink.com 1.10,2013-05-18 13:54:00,
2013-05-18 09:09:00,76.8,73.0,29.80,SE,144,6.0,10.0,87,0.00,,,0.00,weatherlink.com 1.10,2013-05-18 14:09:00,
2013-05-18 09:24:00,76.7,73.0,29.80,ESE,120,9.0,9.0,88,0.00,,,0.00,weatherlink.com 1.10,2013-05-18 14:24:00,
2013-05-18 09:39:00,76.8,73.0,29.80,SE,138,6.0,9.0,87,0.00,,,0.00,weatherlink.com 1.10,2013-05-18 14:39:00,
2013-05-18 09:54:00,77.3,73.0,29.80,SE,144,6.0,13.0,85,0.01,,,0.01,weatherlink.com 1.10,2013-05-18 14:54:00,
2013-05-18 10:09:00,78.0,73.0,29.80,SSE,163,0.0,10.0,85,0.01,,,0.01,weatherlink.com 1.10,2013-05-18 15:09:00,
2013-05-18 10:24:00,79.1,73.0,29.80,South,172,0.0,13.0,82,0.01,,,0.01,weatherlink.com 1.10,2013-05-18 15:24:00,
2013-05-18 10:39:00,80.1,74.0,29.80,SE,135,0.0,10.0,81,0.01,,,0.01,weatherlink.com 1.10,2013-05-18 15:39:00,
2013-05-18 10:54:00,81.2,73.0,29.80,South,175,1.0,13.0,77,0.00,,,0.01,weatherlink.com 1.10,2013-05-18 15:54:00,
2013-05-18 11:09:00,81.4,73.0,29.80,SE,143,0.0,12.0,76,0.00,,,0.01,weatherlink.com 1.10,2013-05-18 16:09:00,
2013-05-18 11:24:00,82.2,72.0,29.80,South,171,5.0,11.0,72,0.00,,,0.01,weatherlink.com 1.10,2013-05-18 16:24:00,
2013-05-18 11:39:00,82.9,73.0,29.79,South,171,0.0,14.0,71,0.00,,,0.01,weatherlink.com 1.10,2013-05-18 16:39:00,
2013-05-18 11:54:00,83.7,72.0,29.79,SSW,210,10.0,14.0,68,0.00,,,0.01,weatherlink.com 1.10,2013-05-18 16:54:00,
2013-05-18 12:10:00,84.4,72.0,29.78,SSW,205,7.0,11.0,66,0.00,,,0.01,weatherlink.com 1.10,2013-05-18 17:10:00,
2013-05-18 12:25:00,84.6,72.0,29.77,SSE,148,6.0,11.0,66,0.00,,,0.01,weatherlink.com 1.10,2013-05-18 17:25:00,
2013-05-18 12:40:00,85.1,72.0,29.77,SSE,157,6.0,12.0,66,0.00,,,0.01,weatherlink.com 1.10,2013-05-18 17:40:00,
2013-05-18 12:55:00,85.9,71.0,29.76,SSW,192,7.0,12.0,62,0.00,,,0.01,weatherlink.com 1.10,2013-05-18 17:55:00,
2013-05-18 13:10:00,86.5,73.0,29.75,SSE,168,6.0,10.0,64,0.00,,,0.01,weatherlink.com 1.10,2013-05-18 18:10:00,
2013-05-18 13:25:00,87.5,72.0,29.75,South,180,6.0,14.0,60,0.00,,,0.01,weatherlink.com 1.10,2013-05-18 18:25:00,
2013-05-18 13:40:00,87.1,70.0,29.74,SSE,167,2.0,19.0,58,0.00,,,0.01,weatherlink.com 1.10,2013-05-18 18:40:00,
2013-05-18 13:55:00,86.9,72.0,29.73,SE,136,16.0,18.0,61,0.00,,,0.01,weatherlink.com 1.10,2013-05-18 18:55:00,
2013-05-18 14:10:00,86.6,72.0,29.73,SSE,163,8.0,18.0,62,0.00,,,0.01,weatherlink.com 1.10,2013-05-18 19:10:00,
2013-05-18 14:25:00,88.3,73.0,29.72,SSE,155,10.0,20.0,60,0.00,,,0.01,weatherlink.com 1.10,2013-05-18 19:25:00,
2013-05-18 14:40:00,88.8,73.0,29.72,SSE,163,3.0,20.0,59,0.00,,,0.01,weatherlink.com 1.10,2013-05-18 19:40:00,
2013-05-18 14:55:00,88.7,72.0,29.71,SSE,152,13.0,23.0,58,0.00,,,0.01,weatherlink.com 1.10,2013-05-18 19:55:00,
2013-05-18 15:10:00,89.5,73.0,29.71,SSE,151,14.0,20.0,58,0.00,,,0.01,weatherlink.com 1.10,2013-05-18 20:10:00,
2013-05-18 15:25:00,89.5,72.0,29.70,SSE,147,15.0,25.0,57,0.00,,,0.01,weatherlink.com 1.10,2013-05-18 20:25:00,
2013-05-18 15:40:00,89.2,71.0,29.69,SE,133,11.0,22.0,56,0.00,,,0.01,weatherlink.com 1.10,2013-05-18 20:40:00,
2013-05-18 15:55:00,90.1,72.0,29.69,SSE,157,22.0,25.0,55,0.00,,,0.01,weatherlink.com 1.10,2013-05-18 20:55:00,
2013-05-18 16:10:00,90.4,72.0,29.69,SSE,148,14.0,18.0,55,0.00,,,0.01,weatherlink.com 1.10,2013-05-18 21:10:00,
2013-05-18 16:25:00,90.6,73.0,29.69,ESE,115,14.0,21.0,56,0.00,,,0.01,weatherlink.com 1.10,2013-05-18 21:25:00,
2013-05-18 16:40:00,90.2,72.0,29.69,SSE,157,19.0,23.0,55,0.00,,,0.01,weatherlink.com 1.10,2013-05-18 21:40:00,
2013-05-18 16:55:00,90.2,73.0,29.68,SSE,160,7.0,17.0,57,0.00,,,0.01,weatherlink.com 1.10,2013-05-18 21:55:00,
2013-05-18 17:10:00,89.8,73.0,29.68,SE,134,12.0,24.0,58,0.00,,,0.01,weatherlink.com 1.10,2013-05-18 22:10:00,
2013-05-18 17:25:00,89.6,73.0,29.67,SE,128,13.0,21.0,58,0.00,,,0.01,weatherlink.com 1.10,2013-05-18 22:25:00,
2013-05-18 17:40:00,89.4,72.0,29.66,SE,144,10.0,23.0,56,0.00,,,0.01,weatherlink.com 1.10,2013-05-18 22:40:00,
2013-05-18 17:55:00,88.8,72.0,29.66,SSE,159,10.0,26.0,58,0.00,,,0.01,weatherlink.com 1.10,2013-05-18 22:55:00,
2013-05-18 18:10:00,88.4,72.0,29.65,SSE,153,15.0,25.0,59,0.00,,,0.01,weatherlink.com 1.10,2013-05-18 23:10:00,
2013-05-18 18:25:00,88.0,72.0,29.65,SSE,151,12.0,21.0,59,0.00,,,0.01,weatherlink.com 1.10,2013-05-18 23:25:00,
2013-05-18 18:40:00,87.3,72.0,29.64,SSE,153,5.0,23.0,60,0.00,,,0.01,weatherlink.com 1.10,2013-05-18 23:40:00,
2013-05-18 18:55:00,86.9,71.0,29.66,SE,146,9.0,20.0,60,0.00,,,0.01,weatherlink.com 1.10,2013-05-18 23:55:00,
2013-05-18 19:10:00,86.6,72.0,29.66,SSE,150,5.0,20.0,62,0.00,,,0.01,weatherlink.com 1.10,2013-05-19 00:10:00,
2013-05-18 19:25:00,85.8,72.0,29.64,SSE,158,4.0,18.0,63,0.00,,,0.01,weatherlink.com 1.10,2013-05-19 00:25:00,
2013-05-18 19:40:00,85.3,72.0,29.63,SE,140,7.0,21.0,65,0.00,,,0.01,weatherlink.com 1.10,2013-05-19 00:40:00,
2013-05-18 19:55:00,85.1,72.0,29.63,SSE,150,6.0,21.0,65,0.00,,,0.01,weatherlink.com 1.10,2013-05-19 00:55:00,
2013-05-18 20:10:00,84.8,72.0,29.65,SE,128,0.0,19.0,66,0.00,,,0.01,weatherlink.com 1.10,2013-05-19 01:10:00,
2013-05-18 20:25:00,84.6,72.0,29.64,SE,126,9.0,20.0,66,0.01,,,0.02,weatherlink.com 1.10,2013-05-19 01:25:00,
2013-05-18 20:40:00,84.2,72.0,29.65,SSE,157,16.0,20.0,66,0.01,,,0.02,weatherlink.com 1.10,2013-05-19 01:40:00,
2013-05-18 20:55:00,84.2,72.0,29.66,SSE,147,3.0,20.0,67,0.01,,,0.02,weatherlink.com 1.10,2013-05-19 01:55:00,
2013-05-18 21:10:00,83.9,72.0,29.66,South,169,7.0,17.0,67,0.01,,,0.02,weatherlink.com 1.10,2013-05-19 02:10:00,
2013-05-18 21:25:00,83.5,72.0,29.66,SE,136,4.0,22.0,68,0.00,,,0.02,weatherlink.com 1.10,2013-05-19 02:25:00,
2013-05-18 21:40:00,83.2,72.0,29.66,SE,143,17.0,22.0,68,0.00,,,0.02,weatherlink.com 1.10,2013-05-19 02:40:00,
2013-05-18 21:55:00,82.9,72.0,29.67,South,190,1.0,18.0,69,0.00,,,0.02,weatherlink.com 1.10,2013-05-19 02:55:00,
2013-05-18 22:10:00,82.8,72.0,29.68,SE,138,6.0,16.0,70,0.00,,,0.02,weatherlink.com 1.10,2013-05-19 03:10:00,
2013-05-18 22:25:00,82.7,72.0,29.69,SSE,157,10.0,19.0,71,0.00,,,0.02,weatherlink.com 1.10,2013-05-19 03:25:00,
2013-05-18 22:40:00,82.6,72.0,29.68,SE,132,21.0,21.0,71,0.00,,,0.02,weatherlink.com 1.10,2013-05-19 03:40:00,
2013-05-18 22:55:00,82.5,72.0,29.68,SE,143,15.0,24.0,71,0.00,,,0.02,weatherlink.com 1.10,2013-05-19 03:55:00,
2013-05-18 23:10:00,82.6,72.0,29.66,SE,130,22.0,36.0,70,0.00,,,0.02,weatherlink.com 1.10,2013-05-19 04:10:00,
2013-05-18 23:25:00,82.7,72.0,29.67,SE,144,20.0,28.0,69,0.00,,,0.02,weatherlink.com 1.10,2013-05-19 04:25:00,
2013-05-18 23:40:00,82.2,71.0,29.69,SSW,194,2.0,16.0,69,0.00,,,0.02,weatherlink.com 1.10,2013-05-19 04:40:00,
2013-05-18 23:55:00,82.1,71.0,29.71,SSE,161,6.0,14.0,68,0.00,,,0.02,weatherlink.com 1.10,2013-05-19 04:55:00,